Time;durP1;ratioP1;P1;durP2;ratioP2;P2;SDS_P1;SDS_P2;PMS_P1;PMS_P2;Temp;Humidity;BMP_temperature;BMP_pressure;BME280_temperature;BME280_humidity;BME280_pressure;Samples;Min_cycle;Max_cycle;Signal;HPM_P1;HPM_P2
2023/04/11 00:02:08;;;;;;;3.30;1.10;;;;;;;;;;5024753;28;20223;-69
2023/04/11 00:04:39;;;;;;;1.73;1.30;;;;;;;;;;5026942;28;20211;-69
2023/04/11 00:07:07;;;;;;;3.57;1.73;;;;;;;;;;5025301;28;20274;-69
2023/04/11 00:09:34;;;;;;;2.40;1.23;;;;;;;;;;5026179;28;20196;-70
2023/04/11 00:12:01;;;;;;;1.90;1.13;;;;;;;;;;5024944;28;20221;-70
2023/04/11 00:14:31;;;;;;;3.20;1.50;;;;;;;;;;5027358;28;20272;-70
2023/04/11 00:16:59;;;;;;;4.20;1.20;;;;;;;;;;5025604;28;20242;-69
2023/04/11 00:19:27;;;;;;;4.90;1.23;;;;;;;;;;5025970;28;20326;-69
2023/04/11 00:21:57;;;;;;;1.50;1.10;;;;;;;;;;5025118;28;20204;-70
2023/04/11 00:24:24;;;;;;;3.13;1.37;;;;;;;;;;5022344;28;20200;-70
2023/04/11 00:26:51;;;;;;;1.33;1.17;;;;;;;;;;5020099;28;20200;-70
2023/04/11 00:29:19;;;;;;;2.80;1.70;;;;;;;;;;5020837;28;20494;-70
2023/04/11 00:31:46;;;;;;;2.20;1.20;;;;;;;;;;5022176;28;20242;-70
2023/04/11 00:34:13;;;;;;;2.63;1.47;;;;;;;;;;5027281;28;20200;-71
2023/04/11 00:36:41;;;;;;;4.17;1.60;;;;;;;;;;5027764;28;20210;-71
2023/04/11 00:39:09;;;;;;;3.47;1.60;;;;;;;;;;5023697;28;20286;-71
2023/04/11 00:41:36;;;;;;;2.37;1.93;;;;;;;;;;5023612;28;20196;-71
2023/04/11 00:44:05;;;;;;;1.73;1.30;;;;;;;;;;5027395;28;20204;-70
2023/04/11 00:46:32;;;;;;;3.77;1.40;;;;;;;;;;5020679;28;20225;-70
2023/04/11 00:49:00;;;;;;;3.70;1.57;;;;;;;;;;5024280;28;20236;-69
2023/04/11 00:51:27;;;;;;;2.97;1.30;;;;;;;;;;5028867;28;20274;-70
2023/04/11 00:53:54;;;;;;;1.37;1.10;;;;;;;;;;5026672;28;20196;-70
2023/04/11 00:56:23;;;;;;;3.73;1.30;;;;;;;;;;5023609;28;20227;-70
2023/04/11 00:58:50;;;;;;;1.90;1.20;;;;;;;;;;5022893;28;20192;-70
2023/04/11 01:01:18;;;;;;;1.97;0.80;;;;;;;;;;5023711;28;20193;-61
2023/04/11 01:03:46;;;;;;;2.30;0.90;;;;;;;;;;5021290;28;20197;-61
2023/04/11 01:06:14;;;;;;;1.30;0.90;;;;;;;;;;5026378;28;20214;-62
2023/04/11 01:08:42;;;;;;;1.90;0.73;;;;;;;;;;5023674;28;20233;-61
2023/04/11 01:11:09;;;;;;;1.20;0.80;;;;;;;;;;5021856;28;20232;-61
2023/04/11 01:13:40;;;;;;;0.97;0.60;;;;;;;;;;5024204;28;20203;-62
2023/04/11 01:16:08;;;;;;;1.97;1.10;;;;;;;;;;5024602;28;20201;-61
2023/04/11 01:18:36;;;;;;;1.90;0.80;;;;;;;;;;5019909;28;20208;-62
2023/04/11 01:21:03;;;;;;;0.77;0.60;;;;;;;;;;5021250;28;20205;-61
2023/04/11 01:23:33;;;;;;;1.90;1.03;;;;;;;;;;5024194;28;20235;-62
2023/04/11 01:26:00;;;;;;;0.57;0.57;;;;;;;;;;5024421;28;20208;-61
2023/04/11 01:28:27;;;;;;;0.67;0.67;;;;;;;;;;5024140;28;20240;-62
2023/04/11 01:30:54;;;;;;;0.87;0.50;;;;;;;;;;5025675;28;20227;-61
2023/04/11 01:33:21;;;;;;;1.07;0.80;;;;;;;;;;5025164;28;20208;-61
2023/04/11 01:35:48;;;;;;;0.73;0.60;;;;;;;;;;5021697;28;20203;-61
2023/04/11 01:38:15;;;;;;;0.97;0.60;;;;;;;;;;5018317;28;20208;-61
2023/04/11 01:40:45;;;;;;;1.33;0.80;;;;;;;;;;5028090;28;20204;-62
2023/04/11 01:43:12;;;;;;;1.13;0.70;;;;;;;;;;5029316;28;20208;-61
2023/04/11 01:45:40;;;;;;;1.10;0.70;;;;;;;;;;5021863;28;20295;-61
2023/04/11 01:48:07;;;;;;;1.60;0.70;;;;;;;;;;5023644;28;20323;-62
2023/04/11 01:50:35;;;;;;;1.93;0.83;;;;;;;;;;5022306;28;20215;-62
2023/04/11 01:53:02;;;;;;;1.10;0.73;;;;;;;;;;5026693;28;20228;-61
2023/04/11 01:55:29;;;;;;;0.80;0.80;;;;;;;;;;5023941;28;20211;-62
2023/04/11 01:57:57;;;;;;;1.13;0.70;;;;;;;;;;5022911;28;20211;-62
2023/04/11 02:00:24;;;;;;;2.53;0.90;;;;;;;;;;5024756;28;20205;-62
2023/04/11 02:02:52;;;;;;;1.60;0.93;;;;;;;;;;5016575;28;20216;-62
2023/04/11 02:05:19;;;;;;;1.33;0.80;;;;;;;;;;5017058;28;20201;-62
2023/04/11 02:07:46;;;;;;;2.97;1.30;;;;;;;;;;5019824;28;20200;-62
2023/04/11 02:10:13;;;;;;;1.40;0.90;;;;;;;;;;5029787;28;20200;-62
2023/04/11 02:12:40;;;;;;;0.63;0.63;;;;;;;;;;5018265;28;20226;-62
2023/04/11 02:15:09;;;;;;;0.60;0.60;;;;;;;;;;5020949;28;20207;-62
2023/04/11 02:17:43;;;;;;;2.10;1.10;;;;;;;;;;5023955;28;20207;-62
2023/04/11 02:20:11;;;;;;;1.43;0.70;;;;;;;;;;5015476;28;20267;-62
2023/04/11 02:22:38;;;;;;;2.00;0.80;;;;;;;;;;5022963;28;20200;-62
2023/04/11 02:25:06;;;;;;;1.03;0.97;;;;;;;;;;5021720;28;20204;-62
2023/04/11 02:27:33;;;;;;;2.53;1.10;;;;;;;;;;5024133;28;20209;-62
2023/04/11 02:30:04;;;;;;;3.17;1.10;;;;;;;;;;5025825;28;20212;-62
2023/04/11 02:32:33;;;;;;;2.13;1.10;;;;;;;;;;5019963;28;20232;-62
2023/04/11 02:35:00;;;;;;;2.50;1.30;;;;;;;;;;5024186;28;20287;-62
2023/04/11 02:37:27;;;;;;;2.33;1.13;;;;;;;;;;5022070;28;20258;-62
2023/04/11 02:39:54;;;;;;;1.90;1.10;;;;;;;;;;5021580;28;20212;-62
2023/04/11 02:42:21;;;;;;;2.63;1.03;;;;;;;;;;5028882;28;20196;-62
2023/04/11 02:44:49;;;;;;;2.43;1.10;;;;;;;;;;5029832;28;20196;-62
2023/04/11 02:47:16;;;;;;;2.20;1.00;;;;;;;;;;5023269;28;20201;-62
2023/04/11 02:49:44;;;;;;;2.80;1.20;;;;;;;;;;5026877;28;20204;-62
2023/04/11 02:52:11;;;;;;;3.07;1.27;;;;;;;;;;5025774;28;20216;-62
2023/04/11 02:54:38;;;;;;;3.27;1.23;;;;;;;;;;5022534;28;20200;-62
2023/04/11 02:57:05;;;;;;;4.17;1.30;;;;;;;;;;5020596;28;20215;-62
2023/04/11 02:59:33;;;;;;;4.73;1.30;;;;;;;;;;5027475;28;20204;-62
2023/04/11 03:02:00;;;;;;;6.97;1.37;;;;;;;;;;5025798;28;20193;-62
2023/04/11 03:04:27;;;;;;;5.00;1.53;;;;;;;;;;5023200;28;20204;-62
2023/04/11 03:06:56;;;;;;;3.23;1.20;;;;;;;;;;5024041;28;20200;-62
2023/04/11 03:09:23;;;;;;;6.57;1.70;;;;;;;;;;5032238;28;20204;-62
2023/04/11 03:11:50;;;;;;;5.23;1.90;;;;;;;;;;5025668;28;20216;-62
2023/04/11 03:14:17;;;;;;;4.40;1.57;;;;;;;;;;5025631;28;20197;-62
2023/04/11 03:16:44;;;;;;;4.70;1.40;;;;;;;;;;5027342;28;20207;-62
2023/04/11 03:19:12;;;;;;;5.07;1.50;;;;;;;;;;5027735;28;20201;-62
2023/04/11 03:21:39;;;;;;;3.53;1.80;;;;;;;;;;5024012;28;20200;-62
2023/04/11 03:24:08;;;;;;;4.77;1.57;;;;;;;;;;5024347;28;20239;-63
2023/04/11 03:26:35;;;;;;;5.70;1.80;;;;;;;;;;5022573;28;20215;-62
2023/04/11 03:29:02;;;;;;;3.50;1.63;;;;;;;;;;5024079;28;20256;-62
2023/04/11 03:31:29;;;;;;;7.53;2.20;;;;;;;;;;5019589;28;20232;-62
2023/04/11 03:33:58;;;;;;;6.33;1.73;;;;;;;;;;5024257;28;20196;-62
2023/04/11 03:36:26;;;;;;;7.13;2.07;;;;;;;;;;5020422;28;20192;-62
2023/04/11 03:38:53;;;;;;;5.07;1.53;;;;;;;;;;5022937;28;20205;-62
2023/04/11 03:41:21;;;;;;;4.33;1.50;;;;;;;;;;5013713;28;20198;-62
2023/04/11 03:43:49;;;;;;;7.40;2.20;;;;;;;;;;5025624;28;20211;-62
2023/04/11 03:46:16;;;;;;;8.70;2.50;;;;;;;;;;5017985;28;20220;-62
2023/04/11 03:48:44;;;;;;;7.70;2.07;;;;;;;;;;5022856;28;20208;-63
2023/04/11 03:51:11;;;;;;;4.57;1.57;;;;;;;;;;5021802;28;20240;-62
2023/04/11 03:53:38;;;;;;;6.17;2.00;;;;;;;;;;5024920;28;20204;-62
2023/04/11 03:56:06;;;;;;;5.33;1.77;;;;;;;;;;5024459;28;20208;-62
2023/04/11 03:58:34;;;;;;;8.13;1.83;;;;;;;;;;5022220;28;20197;-62
2023/04/11 04:01:02;;;;;;;6.83;1.80;;;;;;;;;;5023381;28;20211;-63
2023/04/11 04:03:29;;;;;;;7.83;1.90;;;;;;;;;;5022778;28;20200;-62
2023/04/11 04:05:56;;;;;;;7.83;2.10;;;;;;;;;;5027722;28;20211;-63
2023/04/11 04:08:23;;;;;;;8.87;2.07;;;;;;;;;;5026233;28;20299;-62
2023/04/11 04:10:50;;;;;;;8.97;1.83;;;;;;;;;;5023439;28;20197;-62
2023/04/11 04:13:17;;;;;;;6.47;1.63;;;;;;;;;;5027294;28;20231;-62
2023/04/11 04:15:46;;;;;;;11.20;2.47;;;;;;;;;;5023504;28;20208;-63
2023/04/11 04:18:13;;;;;;;6.03;1.70;;;;;;;;;;5027649;28;20200;-63
2023/04/11 04:20:42;;;;;;;6.70;1.80;;;;;;;;;;5022650;28;20201;-63
2023/04/11 04:23:12;;;;;;;7.33;2.17;;;;;;;;;;5024582;28;20207;-63
2023/04/11 04:25:40;;;;;;;6.67;2.53;;;;;;;;;;5021601;28;20224;-62
2023/04/11 04:28:08;;;;;;;8.57;2.17;;;;;;;;;;5019580;28;20261;-62
2023/04/11 04:30:36;;;;;;;7.63;1.80;;;;;;;;;;5020999;28;20214;-62
2023/04/11 04:33:11;;;;;;;9.53;1.80;;;;;;;;;;5018854;28;20224;-62
2023/04/11 04:35:38;;;;;;;5.53;2.10;;;;;;;;;;5023036;28;20311;-62
2023/04/11 04:38:05;;;;;;;7.30;2.10;;;;;;;;;;5020598;28;20219;-62
2023/04/11 04:40:38;;;;;;;9.30;2.07;;;;;;;;;;5021084;28;20227;-62
2023/04/11 04:43:10;;;;;;;7.40;2.30;;;;;;;;;;5020420;28;20216;-62
2023/04/11 04:45:37;;;;;;;7.93;1.80;;;;;;;;;;5025771;28;20263;-63
2023/04/11 04:48:06;;;;;;;9.83;2.13;;;;;;;;;;5025389;28;20273;-63
2023/04/11 04:50:33;;;;;;;6.33;1.77;;;;;;;;;;5025288;28;20298;-63
2023/04/11 04:53:00;;;;;;;5.57;1.70;;;;;;;;;;5024534;28;20231;-64
2023/04/11 04:55:27;;;;;;;7.80;1.83;;;;;;;;;;5021788;28;20216;-64
2023/04/11 04:57:54;;;;;;;8.60;2.57;;;;;;;;;;5025513;28;20204;-64
2023/04/11 05:00:22;;;;;;;8.73;2.03;;;;;;;;;;5022997;28;20209;-66
2023/04/11 05:02:49;;;;;;;8.27;2.10;;;;;;;;;;5018721;28;20209;-64
2023/04/11 05:05:17;;;;;;;7.60;2.37;;;;;;;;;;5023219;28;20219;-63
2023/04/11 05:07:45;;;;;;;7.17;1.83;;;;;;;;;;5021566;28;20234;-63
2023/04/11 05:10:12;;;;;;;9.63;1.83;;;;;;;;;;5019933;28;20235;-64
2023/04/11 05:12:39;;;;;;;7.73;1.97;;;;;;;;;;5020927;28;20216;-63
2023/04/11 05:15:10;;;;;;;9.90;2.00;;;;;;;;;;5019819;28;20212;-63
2023/04/11 05:17:37;;;;;;;7.63;2.53;;;;;;;;;;5023672;28;20217;-63
2023/04/11 05:20:06;;;;;;;10.17;2.10;;;;;;;;;;5023650;28;20211;-63
2023/04/11 05:22:35;;;;;;;8.43;1.83;;;;;;;;;;5021848;28;20204;-63
2023/04/11 05:25:02;;;;;;;5.97;2.10;;;;;;;;;;5016142;28;20239;-63
2023/04/11 05:27:29;;;;;;;10.77;2.50;;;;;;;;;;5024994;28;20204;-63
2023/04/11 05:29:56;;;;;;;11.70;2.07;;;;;;;;;;5022195;28;20215;-63
2023/04/11 05:32:24;;;;;;;5.63;1.90;;;;;;;;;;5020182;28;20314;-63
2023/04/11 05:34:52;;;;;;;8.77;2.50;;;;;;;;;;5026259;28;20207;-63
2023/04/11 05:37:19;;;;;;;7.80;2.10;;;;;;;;;;5020972;28;20208;-63
2023/04/11 05:39:48;;;;;;;7.33;1.90;;;;;;;;;;5024522;28;20204;-63
2023/04/11 05:42:17;;;;;;;7.20;2.13;;;;;;;;;;5019822;28;20204;-63
2023/04/11 05:44:44;;;;;;;10.17;2.20;;;;;;;;;;5017910;28;20209;-63
2023/04/11 05:47:11;;;;;;;10.50;2.27;;;;;;;;;;5019789;28;20203;-63
2023/04/11 05:49:38;;;;;;;8.23;2.00;;;;;;;;;;5022636;28;20200;-63
2023/04/11 05:52:05;;;;;;;8.53;2.10;;;;;;;;;;5019574;28;20216;-63
2023/04/11 05:54:33;;;;;;;6.57;1.80;;;;;;;;;;5022578;28;20215;-63
2023/04/11 05:57:02;;;;;;;8.90;2.10;;;;;;;;;;5023729;28;20209;-63
2023/04/11 05:59:30;;;;;;;7.00;2.00;;;;;;;;;;5026553;28;20201;-63
2023/04/11 06:01:57;;;;;;;10.20;2.00;;;;;;;;;;5020792;28;20201;-63
2023/04/11 06:04:24;;;;;;;9.00;2.20;;;;;;;;;;5019607;28;20215;-63
2023/04/11 06:06:52;;;;;;;5.70;2.00;;;;;;;;;;5014594;28;20201;-63
2023/04/11 06:09:19;;;;;;;39.83;4.87;;;;;;;;;;5022140;28;20204;-63
2023/04/11 06:11:47;;;;;;;46.23;6.07;;;;;;;;;;5008834;28;20208;-63
2023/04/11 06:14:15;;;;;;;10.23;2.23;;;;;;;;;;5017752;28;20197;-63
2023/04/11 06:16:42;;;;;;;8.93;2.43;;;;;;;;;;5019242;28;20204;-64
2023/04/11 06:19:09;;;;;;;8.00;2.43;;;;;;;;;;5025084;28;20196;-63
2023/04/11 06:21:37;;;;;;;10.83;2.90;;;;;;;;;;5022319;28;20215;-63
2023/04/11 06:24:05;;;;;;;12.10;2.37;;;;;;;;;;5023551;28;20251;-63
2023/04/11 06:26:33;;;;;;;12.00;3.03;;;;;;;;;;5022948;28;20211;-63
2023/04/11 06:29:00;;;;;;;13.73;2.47;;;;;;;;;;5018660;28;20232;-63
2023/04/11 06:31:28;;;;;;;9.27;2.20;;;;;;;;;;5020480;28;20212;-63
2023/04/11 06:33:55;;;;;;;9.63;2.53;;;;;;;;;;5020263;28;20322;-63
2023/04/11 06:36:22;;;;;;;6.50;2.30;;;;;;;;;;5023324;28;20208;-63
2023/04/11 06:38:51;;;;;;;5.90;2.40;;;;;;;;;;5020338;28;20204;-64
2023/04/11 06:41:18;;;;;;;11.60;2.47;;;;;;;;;;5022094;28;20209;-63
2023/04/11 06:43:48;;;;;;;10.10;2.10;;;;;;;;;;5024053;28;20200;-63
2023/04/11 06:46:16;;;;;;;8.10;2.07;;;;;;;;;;5022148;28;20207;-63
2023/04/11 06:48:44;;;;;;;8.27;2.00;;;;;;;;;;5021990;28;20219;-63
2023/04/11 06:51:12;;;;;;;10.20;2.30;;;;;;;;;;5011904;28;20219;-63
2023/04/11 06:53:39;;;;;;;5.87;1.97;;;;;;;;;;5022936;28;20227;-63
2023/04/11 06:56:06;;;;;;;12.27;2.60;;;;;;;;;;5017297;28;20208;-63
2023/04/11 06:58:34;;;;;;;8.23;2.47;;;;;;;;;;5024102;28;20227;-63
2023/04/11 07:01:01;;;;;;;8.30;2.20;;;;;;;;;;5020473;28;20206;-62
2023/04/11 07:03:29;;;;;;;7.00;1.80;;;;;;;;;;5028982;28;20196;-63
2023/04/11 07:05:58;;;;;;;5.83;1.63;;;;;;;;;;5016020;28;20208;-63
2023/04/11 07:08:25;;;;;;;3.70;1.53;;;;;;;;;;5014351;28;20259;-63
2023/04/11 07:10:52;;;;;;;6.97;1.60;;;;;;;;;;5019225;28;20259;-62
2023/04/11 07:13:20;;;;;;;4.07;1.67;;;;;;;;;;5023995;28;20254;-62
2023/04/11 07:15:48;;;;;;;4.30;1.40;;;;;;;;;;5017493;28;20204;-62
2023/04/11 07:18:15;;;;;;;4.57;1.40;;;;;;;;;;5023622;28;20205;-63
2023/04/11 07:20:43;;;;;;;6.70;2.07;;;;;;;;;;5025447;28;20208;-62
2023/04/11 07:23:11;;;;;;;5.03;1.50;;;;;;;;;;5020535;28;20196;-62
2023/04/11 07:25:39;;;;;;;5.47;1.93;;;;;;;;;;5020673;28;20220;-62
2023/04/11 07:28:07;;;;;;;4.93;1.67;;;;;;;;;;5023450;28;20301;-62
2023/04/11 07:30:35;;;;;;;5.27;2.03;;;;;;;;;;5021580;28;20211;-62
2023/04/11 07:33:02;;;;;;;6.13;1.80;;;;;;;;;;5024221;28;20228;-62
2023/04/11 07:35:30;;;;;;;8.90;1.53;;;;;;;;;;5020997;28;20239;-62
2023/04/11 07:37:57;;;;;;;9.83;2.10;;;;;;;;;;5028479;28;20200;-62
2023/04/11 07:40:25;;;;;;;7.17;1.57;;;;;;;;;;5024173;28;20207;-62
2023/04/11 07:42:52;;;;;;;6.67;1.90;;;;;;;;;;5019259;28;20201;-62
2023/04/11 07:45:20;;;;;;;10.47;2.23;;;;;;;;;;5023068;28;20204;-63
2023/04/11 07:47:47;;;;;;;8.53;2.07;;;;;;;;;;5023831;28;20196;-62
2023/04/11 07:50:15;;;;;;;6.77;2.10;;;;;;;;;;5021085;28;20208;-62
2023/04/11 07:52:42;;;;;;;10.70;2.50;;;;;;;;;;5024675;28;20227;-62
2023/04/11 07:55:10;;;;;;;6.77;1.80;;;;;;;;;;5024662;28;20205;-62
2023/04/11 07:57:38;;;;;;;12.37;2.40;;;;;;;;;;5019007;28;20216;-62
2023/04/11 08:00:08;;;;;;;9.70;2.03;;;;;;;;;;5020825;28;20205;-63
2023/04/11 08:02:36;;;;;;;7.13;2.30;;;;;;;;;;5028038;28;20208;-62
2023/04/11 08:05:04;;;;;;;8.20;2.20;;;;;;;;;;5020403;28;20212;-62
2023/04/11 08:07:31;;;;;;;9.67;2.17;;;;;;;;;;5023598;28;20204;-62
2023/04/11 08:09:58;;;;;;;7.20;1.90;;;;;;;;;;5020081;28;20235;-62
2023/04/11 08:12:26;;;;;;;7.23;2.13;;;;;;;;;;5021203;28;20207;-63
2023/04/11 08:14:54;;;;;;;7.97;2.30;;;;;;;;;;5022438;28;20208;-63
2023/04/11 08:17:24;;;;;;;6.93;1.80;;;;;;;;;;5025455;28;20232;-62
2023/04/11 08:19:51;;;;;;;9.70;3.00;;;;;;;;;;5030237;28;20215;-63
2023/04/11 08:22:19;;;;;;;7.67;2.27;;;;;;;;;;5026325;28;20212;-62
2023/04/11 08:24:46;;;;;;;6.90;2.20;;;;;;;;;;5022383;28;20207;-63
2023/04/11 08:27:13;;;;;;;8.90;1.73;;;;;;;;;;5018509;28;20212;-63
2023/04/11 08:29:41;;;;;;;7.40;2.10;;;;;;;;;;5017780;28;20228;-63
2023/04/11 08:32:09;;;;;;;9.23;2.27;;;;;;;;;;5015473;28;20201;-62
2023/04/11 08:34:37;;;;;;;8.27;1.87;;;;;;;;;;5015000;28;20213;-62
2023/04/11 08:37:04;;;;;;;7.90;2.00;;;;;;;;;;5025284;28;20224;-63
2023/04/11 08:39:31;;;;;;;6.97;2.40;;;;;;;;;;5022592;28;20259;-62
2023/04/11 08:41:59;;;;;;;8.83;2.13;;;;;;;;;;5028642;28;20200;-61
2023/04/11 08:44:26;;;;;;;8.63;2.00;;;;;;;;;;5025961;28;20229;-61
2023/04/11 08:46:54;;;;;;;6.00;1.70;;;;;;;;;;5028555;28;20243;-62
2023/04/11 08:49:25;;;;;;;8.70;1.43;;;;;;;;;;5026109;28;20208;-62
2023/04/11 08:51:55;;;;;;;9.73;1.80;;;;;;;;;;5028663;28;20204;-62
2023/04/11 08:54:22;;;;;;;6.77;1.70;;;;;;;;;;5032421;28;20227;-62
2023/04/11 08:56:49;;;;;;;7.60;1.87;;;;;;;;;;5024375;28;20275;-62
2023/04/11 08:59:17;;;;;;;4.27;1.40;;;;;;;;;;5021630;28;20207;-61
2023/04/11 09:01:44;;;;;;;4.73;1.43;;;;;;;;;;5025458;28;20295;-62
2023/04/11 09:04:11;;;;;;;10.03;2.23;;;;;;;;;;5028369;28;20189;-62
2023/04/11 09:06:42;;;;;;;5.63;1.80;;;;;;;;;;5024240;28;20196;-61
2023/04/11 09:09:28;;;;;;;5.40;1.97;;;;;;;;;;5031083;28;20196;-62
2023/04/11 09:11:56;;;;;;;4.93;1.60;;;;;;;;;;5029350;28;20283;-62
2023/04/11 09:14:25;;;;;;;5.07;1.60;;;;;;;;;;5024325;28;20224;-62
2023/04/11 09:16:54;;;;;;;6.03;1.70;;;;;;;;;;5021840;28;20208;-61
2023/04/11 09:19:25;;;;;;;4.87;1.53;;;;;;;;;;5020758;28;20246;-62
2023/04/11 09:21:55;;;;;;;5.10;1.43;;;;;;;;;;5020665;28;20255;-62
2023/04/11 09:24:24;;;;;;;4.07;1.53;;;;;;;;;;5020432;28;20223;-62
2023/04/11 09:26:52;;;;;;;5.13;1.43;;;;;;;;;;5017373;28;20212;-62
2023/04/11 09:29:36;;;;;;;3.80;1.20;;;;;;;;;;5022938;28;20233;-62
2023/04/11 09:32:04;;;;;;;4.90;1.40;;;;;;;;;;5022445;28;20264;-62
2023/04/11 09:34:36;;;;;;;5.13;1.67;;;;;;;;;;5019477;28;20318;-61
2023/04/11 09:37:05;;;;;;;4.10;1.50;;;;;;;;;;5021924;28;20224;-62
2023/04/11 09:39:32;;;;;;;6.87;1.40;;;;;;;;;;5021925;28;20219;-62
2023/04/11 09:42:01;;;;;;;11.27;1.60;;;;;;;;;;5021580;28;20205;-62
2023/04/11 09:44:38;;;;;;;5.67;1.70;;;;;;;;;;5022665;28;20200;-62
2023/04/11 09:47:05;;;;;;;5.70;1.57;;;;;;;;;;5017675;28;20208;-63
2023/04/11 09:49:34;;;;;;;3.90;1.27;;;;;;;;;;5017895;28;20200;-61
2023/04/11 09:52:01;;;;;;;5.60;1.43;;;;;;;;;;5016954;28;20288;-61
2023/04/11 09:54:31;;;;;;;6.17;1.57;;;;;;;;;;5023723;28;20226;-62
2023/04/11 09:56:59;;;;;;;7.07;2.13;;;;;;;;;;5022695;28;20207;-61
2023/04/11 09:59:27;;;;;;;7.37;2.00;;;;;;;;;;5023775;28;20203;-62
2023/04/11 10:01:55;;;;;;;3.53;1.43;;;;;;;;;;5018730;28;20260;-62
2023/04/11 10:04:22;;;;;;;5.83;1.60;;;;;;;;;;5018862;28;20276;-61
2023/04/11 10:06:53;;;;;;;3.80;1.67;;;;;;;;;;5019939;28;20267;-62
2023/04/11 10:09:22;;;;;;;5.63;1.63;;;;;;;;;;5020532;28;20203;-61
2023/04/11 10:11:51;;;;;;;4.63;1.60;;;;;;;;;;5019814;28;20200;-61
2023/04/11 10:14:37;;;;;;;5.87;1.70;;;;;;;;;;5016153;28;20239;-61
2023/04/11 10:17:17;;;;;;;3.40;1.40;;;;;;;;;;5021304;28;20292;-62
2023/04/11 10:19:45;;;;;;;5.70;1.57;;;;;;;;;;5019683;28;20258;-61
2023/04/11 10:22:32;;;;;;;4.22;1.30;;;;;;;;;;5018533;28;20216;-62
2023/04/11 10:25:17;;;;;;;5.68;1.20;;;;;;;;;;5011619;28;20219;-61
2023/04/11 10:27:49;;;;;;;4.70;1.40;;;;;;;;;;5016940;28;20220;-62
2023/04/11 10:30:16;;;;;;;2.27;1.10;;;;;;;;;;5020870;28;20212;-62
2023/04/11 10:33:09;;;;;;;4.73;1.50;;;;;;;;;;5016103;28;20200;-62
2023/04/11 10:35:37;;;;;;;3.80;1.30;;;;;;;;;;5023085;28;20215;-61
2023/04/11 10:38:04;;;;;;;2.88;1.15;;;;;;;;;;5019382;28;20246;-61
2023/04/11 10:40:31;;;;;;;1.55;0.80;;;;;;;;;;5023446;28;20208;-61
2023/04/11 10:43:19;;;;;;;6.25;1.23;;;;;;;;;;5023303;28;20250;-62
2023/04/11 10:46:07;;;;;;;7.00;1.33;;;;;;;;;;5019414;28;20208;-61
2023/04/11 10:48:54;;;;;;;5.35;1.60;;;;;;;;;;5028368;28;20289;-61
2023/04/11 10:51:24;;;;;;;3.15;1.35;;;;;;;;;;5021795;28;20200;-62
2023/04/11 10:53:52;;;;;;;4.10;1.30;;;;;;;;;;5020927;28;20259;-62
2023/04/11 10:56:34;;;;;;;1.30;1.05;;;;;;;;;;5021731;28;20255;-61
2023/04/11 10:59:02;;;;;;;3.40;1.20;;;;;;;;;;5017040;28;20215;-62
2023/04/11 11:01:30;;;;;;;5.32;1.33;;;;;;;;;;5030500;28;20204;-61
2023/04/11 11:03:57;;;;;;;4.65;1.48;;;;;;;;;;5027405;28;20200;-61
2023/04/11 11:06:25;;;;;;;4.28;1.30;;;;;;;;;;5018526;28;20212;-61
2023/04/11 11:08:53;;;;;;;3.58;1.35;;;;;;;;;;5024661;28;20291;-61
2023/04/11 11:11:20;;;;;;;4.88;1.20;;;;;;;;;;5028377;28;20200;-61
2023/04/11 11:13:48;;;;;;;2.95;1.20;;;;;;;;;;5021884;28;20235;-61
2023/04/11 11:16:17;;;;;;;4.90;1.50;;;;;;;;;;5023869;28;20211;-61
2023/04/11 11:18:46;;;;;;;5.18;1.48;;;;;;;;;;5027879;28;20204;-61
2023/04/11 11:21:14;;;;;;;2.53;1.23;;;;;;;;;;5025282;28;20208;-61
2023/04/11 11:23:41;;;;;;;2.30;1.10;;;;;;;;;;5024038;28;20200;-61
2023/04/11 11:26:08;;;;;;;3.80;1.35;;;;;;;;;;5028114;28;20227;-61
2023/04/11 11:28:46;;;;;;;16.70;10.23;;;;;;;;;;5026671;28;20242;-61
2023/04/11 11:31:13;;;;;;;1.85;1.20;;;;;;;;;;5023495;28;20204;-62
2023/04/11 11:33:41;;;;;;;2.65;1.30;;;;;;;;;;5025717;28;20213;-61
2023/04/11 11:36:10;;;;;;;2.53;1.17;;;;;;;;;;5025001;28;20212;-61
2023/04/11 11:38:37;;;;;;;3.83;1.00;;;;;;;;;;5030198;28;20239;-61
2023/04/11 11:41:04;;;;;;;1.98;1.20;;;;;;;;;;5030006;28;20212;-61
2023/04/11 11:43:35;;;;;;;4.75;1.25;;;;;;;;;;5022944;28;20201;-61
2023/04/11 11:46:09;;;;;;;1.75;1.10;;;;;;;;;;5025455;28;20239;-61
2023/04/11 11:48:36;;;;;;;4.53;1.25;;;;;;;;;;5017513;28;20219;-61
2023/04/11 11:51:05;;;;;;;4.07;1.30;;;;;;;;;;5018554;28;20215;-61
2023/04/11 11:53:33;;;;;;;4.15;1.38;;;;;;;;;;5029873;28;20211;-61
2023/04/11 11:56:00;;;;;;;3.33;1.50;;;;;;;;;;5026121;28;20238;-61
2023/04/11 11:58:27;;;;;;;3.03;1.10;;;;;;;;;;5024728;28;20200;-61
2023/04/11 12:00:54;;;;;;;3.78;1.55;;;;;;;;;;5023520;28;20232;-61
2023/04/11 12:03:23;;;;;;;1.50;1.13;;;;;;;;;;5021954;28;20201;-61
2023/04/11 12:05:51;;;;;;;4.10;1.40;;;;;;;;;;5020578;28;20200;-61
2023/04/11 12:08:21;;;;;;;3.33;1.17;;;;;;;;;;5019020;28;20219;-61
2023/04/11 12:10:49;;;;;;;2.90;1.30;;;;;;;;;;5024247;28;20197;-61
2023/04/11 12:13:18;;;;;;;3.70;1.45;;;;;;;;;;5022025;28;20201;-61
2023/04/11 12:15:46;;;;;;;2.70;1.30;;;;;;;;;;5017502;28;20232;-61
2023/04/11 12:18:13;;;;;;;2.40;1.30;;;;;;;;;;5025279;28;20211;-61
2023/04/11 12:20:40;;;;;;;1.98;1.15;;;;;;;;;;5027852;28;20204;-61
2023/04/11 12:23:08;;;;;;;3.63;1.30;;;;;;;;;;5023704;28;20221;-60
2023/04/11 12:25:36;;;;;;;5.38;1.58;;;;;;;;;;5022270;28;20216;-61
2023/04/11 12:28:03;;;;;;;3.25;1.27;;;;;;;;;;5027279;28;20232;-61
2023/04/11 12:30:34;;;;;;;2.83;1.35;;;;;;;;;;5022343;28;20211;-61
2023/04/11 12:33:02;;;;;;;5.55;1.70;;;;;;;;;;5025004;28;20205;-61
2023/04/11 12:35:35;;;;;;;3.42;1.25;;;;;;;;;;5020905;28;20235;-61
2023/04/11 12:38:03;;;;;;;2.88;1.25;;;;;;;;;;5025471;28;20200;-60
2023/04/11 12:40:33;;;;;;;3.53;1.25;;;;;;;;;;5021274;28;20209;-61
2023/04/11 12:43:10;;;;;;;4.43;1.48;;;;;;;;;;5020634;28;20231;-61
2023/04/11 12:45:41;;;;;;;4.13;1.40;;;;;;;;;;5023869;28;20230;-60
2023/04/11 12:48:09;;;;;;;3.95;1.40;;;;;;;;;;5018638;28;20208;-60
2023/04/11 12:50:41;;;;;;;4.47;1.70;;;;;;;;;;5017689;28;20208;-61
2023/04/11 12:53:13;;;;;;;3.80;1.50;;;;;;;;;;5023952;28;20204;-60
2023/04/11 12:55:41;;;;;;;3.67;1.33;;;;;;;;;;5025192;28;20235;-61
2023/04/11 12:58:14;;;;;;;2.67;1.60;;;;;;;;;;5018657;28;20204;-61
2023/04/11 13:00:41;;;;;;;3.22;1.52;;;;;;;;;;5020975;28;20204;-61
2023/04/11 13:03:08;;;;;;;3.17;1.38;;;;;;;;;;5024476;28;20201;-61
2023/04/11 13:05:36;;;;;;;3.47;1.20;;;;;;;;;;5026601;28;20208;-60
2023/04/11 13:08:03;;;;;;;3.63;1.40;;;;;;;;;;5026602;28;20200;-61
2023/04/11 13:10:30;;;;;;;6.45;1.75;;;;;;;;;;5023277;28;20288;-60
2023/04/11 13:12:58;;;;;;;6.38;2.05;;;;;;;;;;5023761;28;20204;-60
2023/04/11 13:15:26;;;;;;;4.50;1.45;;;;;;;;;;5017451;28;20252;-60
2023/04/11 13:17:53;;;;;;;4.63;1.90;;;;;;;;;;5025350;28;20208;-61
2023/04/11 13:20:21;;;;;;;4.38;1.50;;;;;;;;;;5023103;28;20205;-60
2023/04/11 13:22:48;;;;;;;4.72;1.60;;;;;;;;;;5023725;28;20235;-61
2023/04/11 13:25:15;;;;;;;4.05;1.45;;;;;;;;;;5021483;28;20212;-61
2023/04/11 13:27:42;;;;;;;4.57;1.58;;;;;;;;;;5022410;28;20205;-61
2023/04/11 13:30:10;;;;;;;3.05;1.48;;;;;;;;;;5015026;28;20245;-61
2023/04/11 13:32:39;;;;;;;4.07;1.70;;;;;;;;;;5017880;28;20267;-62
2023/04/11 13:35:07;;;;;;;4.38;1.63;;;;;;;;;;5024226;28;20216;-61
2023/04/11 13:37:34;;;;;;;4.25;1.35;;;;;;;;;;5023785;28;20240;-61
2023/04/11 13:40:01;;;;;;;4.43;1.58;;;;;;;;;;5013298;28;20247;-61
2023/04/11 13:42:28;;;;;;;4.20;1.42;;;;;;;;;;5021869;28;20201;-61
2023/04/11 13:44:55;;;;;;;4.15;1.55;;;;;;;;;;5021005;28;20208;-60
2023/04/11 13:47:22;;;;;;;4.28;1.40;;;;;;;;;;5015712;28;20262;-61
2023/04/11 13:49:51;;;;;;;4.80;1.52;;;;;;;;;;5022463;28;20299;-61
2023/04/11 13:52:18;;;;;;;3.92;1.50;;;;;;;;;;5024238;28;20221;-61
2023/04/11 13:54:45;;;;;;;3.83;1.48;;;;;;;;;;5020938;28;20232;-61
2023/04/11 13:57:12;;;;;;;4.88;1.63;;;;;;;;;;5015884;28;20193;-61
2023/04/11 13:59:39;;;;;;;5.30;1.42;;;;;;;;;;5021073;28;20207;-61
2023/04/11 14:02:07;;;;;;;4.57;1.50;;;;;;;;;;5018680;28;20290;-61
2023/04/11 14:04:34;;;;;;;4.47;1.48;;;;;;;;;;5018823;28;20205;-61
2023/04/11 14:07:02;;;;;;;3.22;1.30;;;;;;;;;;5017991;28;20200;-60
2023/04/11 14:09:29;;;;;;;5.65;1.90;;;;;;;;;;5023649;28;20204;-61
2023/04/11 14:11:56;;;;;;;4.30;1.50;;;;;;;;;;5024265;28;20207;-61
2023/04/11 14:14:24;;;;;;;4.93;1.50;;;;;;;;;;5020862;28;20215;-61
2023/04/11 14:16:51;;;;;;;5.18;1.60;;;;;;;;;;5020189;28;20214;-61
2023/04/11 14:19:21;;;;;;;4.70;1.60;;;;;;;;;;5022335;28;20201;-60
2023/04/11 14:21:48;;;;;;;4.68;1.50;;;;;;;;;;5017295;28;20209;-61
2023/04/11 14:24:18;;;;;;;3.63;1.50;;;;;;;;;;5023280;28;20219;-60
2023/04/11 14:26:45;;;;;;;5.50;1.90;;;;;;;;;;5024729;28;20230;-60
2023/04/11 14:29:12;;;;;;;3.97;1.27;;;;;;;;;;5020258;28;20262;-61
2023/04/11 14:31:39;;;;;;;8.13;1.60;;;;;;;;;;5017850;28;20204;-61
2023/04/11 14:34:06;;;;;;;4.55;1.40;;;;;;;;;;5017740;28;20201;-61
2023/04/11 14:36:33;;;;;;;3.63;1.52;;;;;;;;;;5013767;28;20212;-61
2023/04/11 14:39:00;;;;;;;2.72;1.30;;;;;;;;;;5016795;28;20197;-61
2023/04/11 14:41:29;;;;;;;4.68;2.30;;;;;;;;;;5023964;28;20208;-61
2023/04/11 14:43:56;;;;;;;2.53;1.55;;;;;;;;;;5022231;28;20288;-60
2023/04/11 14:46:23;;;;;;;1.50;0.90;;;;;;;;;;5026995;28;20200;-61
2023/04/11 14:48:50;;;;;;;2.03;1.00;;;;;;;;;;5022510;28;20200;-61
2023/04/11 14:51:17;;;;;;;6.15;3.33;;;;;;;;;;5023935;28;20207;-61